Time;durP1;ratioP1;P1;durP2;ratioP2;P2;SDS_P1;SDS_P2;PMS_P1;PMS_P2;Temp;Humidity;BMP_temperature;BMP_pressure;BME280_temperature;BME280_humidity;BME280_pressure;Samples;Min_cycle;Max_cycle;Signal;HPM_P1;HPM_P2
2022/07/24 00:01:17;;;;;;;9.20;6.42;;;;;;;22.48;56.83;95644.38;1791654;80;21050;-65
2022/07/24 00:03:44;;;;;;;11.80;6.83;;;;;;;22.39;56.14;95636.89;1795149;80;21054;-65
2022/07/24 00:06:11;;;;;;;17.77;6.67;;;;;;;22.31;56.92;95624.44;1795471;80;21006;-65
2022/07/24 00:08:38;;;;;;;9.35;6.37;;;;;;;22.23;57.19;95620.41;1795323;80;20964;-65
2022/07/24 00:11:05;;;;;;;15.85;6.25;;;;;;;22.20;56.10;95623.76;1795367;80;21075;-65
2022/07/24 00:13:32;;;;;;;16.80;6.47;;;;;;;22.19;57.62;95621.55;1795219;80;21083;-65
2022/07/24 00:15:59;;;;;;;8.05;5.78;;;;;;;22.09;57.79;95623.08;1795331;80;21047;-65
2022/07/24 00:18:26;;;;;;;14.38;6.58;;;;;;;22.04;57.52;95620.67;1795231;80;21018;-65
2022/07/24 00:20:52;;;;;;;15.05;6.35;;;;;;;21.98;58.86;95613.02;1795500;80;21005;-65
2022/07/24 00:23:19;;;;;;;11.48;6.58;;;;;;;21.89;58.75;95613.59;1795118;80;21103;-65
2022/07/24 00:25:46;;;;;;;11.93;6.12;;;;;;;21.77;59.01;95607.64;1794991;80;21113;-65
2022/07/24 00:28:13;;;;;;;16.12;6.15;;;;;;;21.69;57.81;95604.58;1795442;80;20994;-65
2022/07/24 00:30:39;;;;;;;9.78;5.65;;;;;;;21.60;58.83;95604.69;1795342;80;21034;-65
2022/07/24 00:33:06;;;;;;;13.50;6.20;;;;;;;21.50;58.83;95605.73;1794978;80;21078;-65
2022/07/24 00:35:33;;;;;;;11.08;6.15;;;;;;;21.44;59.67;95599.38;1795321;80;21003;-65
2022/07/24 00:38:00;;;;;;;12.70;6.35;;;;;;;21.39;60.10;95593.43;1795391;80;21086;-65
2022/07/24 00:40:27;;;;;;;13.25;6.25;;;;;;;21.22;61.29;95593.11;1795570;80;20990;-65
2022/07/24 00:42:54;;;;;;;12.55;6.78;;;;;;;21.14;60.00;95588.66;1795692;80;21041;-65
2022/07/24 00:45:21;;;;;;;12.10;6.08;;;;;;;21.14;59.29;95578.81;1795262;80;21065;-65
2022/07/24 00:47:49;;;;;;;17.57;6.53;;;;;;;21.10;60.88;95576.41;1795402;80;21012;-65
2022/07/24 00:50:16;;;;;;;8.98;6.03;;;;;;;21.03;60.52;95574.56;1795193;80;21091;-65
2022/07/24 00:52:45;;;;;;;13.83;6.47;;;;;;;20.90;60.74;95571.75;1795220;80;21079;-65
2022/07/24 00:55:13;;;;;;;7.42;6.25;;;;;;;20.80;62.01;95573.26;1795521;80;21003;-65
2022/07/24 00:57:43;;;;;;;14.00;6.47;;;;;;;20.73;60.94;95566.52;1795593;80;21539;-65
2022/07/24 01:00:10;;;;;;;13.10;6.37;;;;;;;20.73;60.52;95553.97;1795454;80;21086;-65
2022/07/24 01:02:41;;;;;;;11.60;6.70;;;;;;;20.67;60.60;95553.02;1787107;80;20983;-65
2022/07/24 01:05:10;;;;;;;9.90;6.30;;;;;;;20.51;61.89;95558.84;1787311;80;20996;-65
2022/07/24 01:07:37;;;;;;;11.18;5.90;;;;;;;20.35;62.87;95549.98;1787193;80;21485;-65
2022/07/24 01:10:05;;;;;;;9.50;5.95;;;;;;;20.32;61.95;95548.34;1787192;80;20983;-65
2022/07/24 01:12:34;;;;;;;11.73;6.33;;;;;;;20.23;63.41;95554.22;1787132;80;21485;-65
2022/07/24 01:15:02;;;;;;;7.40;6.17;;;;;;;20.14;62.94;95548.92;1787035;80;21477;-65
2022/07/24 01:17:35;;;;;;;9.65;6.33;;;;;;;20.15;62.24;95548.44;1786805;80;21480;-65
2022/07/24 01:20:04;;;;;;;15.03;7.33;;;;;;;20.08;62.18;95535.41;1787324;80;20996;-65
2022/07/24 01:22:31;;;;;;;10.30;6.08;;;;;;;20.07;61.89;95530.98;1787145;80;21513;-65
2022/07/24 01:24:58;;;;;;;13.35;6.40;;;;;;;20.05;61.98;95532.88;1787486;80;20975;-65
2022/07/24 01:27:25;;;;;;;12.58;6.50;;;;;;;19.97;63.69;95516.88;1787036;80;21043;-65
2022/07/24 01:29:52;;;;;;;9.80;6.58;;;;;;;19.85;64.51;95520.62;1786800;80;20991;-65
2022/07/24 01:32:19;;;;;;;8.85;6.28;;;;;;;19.75;64.53;95515.39;1787060;80;21050;-65
2022/07/24 01:34:46;;;;;;;9.58;6.10;;;;;;;19.67;65.18;95513.15;1787107;80;21022;-65
2022/07/24 01:37:13;;;;;;;9.05;6.47;;;;;;;19.63;64.52;95506.67;1786988;80;20994;-65
2022/07/24 01:39:39;;;;;;;7.25;5.20;;;;;;;19.59;64.67;95507.33;1787306;80;21468;-65
2022/07/24 01:42:06;;;;;;;13.00;5.72;;;;;;;19.57;65.41;95505.69;1786882;80;21492;-65
2022/07/24 01:44:33;;;;;;;8.48;5.60;;;;;;;19.57;64.85;95504.35;1786906;80;21031;-65
2022/07/24 01:47:00;;;;;;;10.00;5.15;;;;;;;19.56;64.70;95502.16;1786741;80;21023;-65
2022/07/24 01:49:26;;;;;;;11.90;5.70;;;;;;;19.56;65.42;95501.30;1786799;80;21520;-65
2022/07/24 01:51:53;;;;;;;8.48;5.58;;;;;;;19.54;64.97;95492.48;1787080;80;21030;-64
2022/07/24 01:54:20;;;;;;;14.78;5.83;;;;;;;19.50;65.52;95491.77;1786822;80;21027;-65
2022/07/24 01:56:47;;;;;;;13.35;5.80;;;;;;;19.50;65.28;95492.25;1787146;80;21011;-65
2022/07/24 01:59:14;;;;;;;11.70;5.92;;;;;;;19.45;64.94;95479.13;1787197;80;21007;-65
2022/07/24 02:01:40;;;;;;;10.82;5.40;;;;;;;19.48;64.73;95478.09;1790899;80;21049;-65
2022/07/24 02:04:07;;;;;;;13.72;5.80;;;;;;;19.48;64.71;95475.41;1795577;80;20983;-65
2022/07/24 02:06:34;;;;;;;8.65;5.78;;;;;;;19.47;64.97;95473.22;1795382;80;21042;-65
2022/07/24 02:09:01;;;;;;;8.78;5.70;;;;;;;19.49;64.97;95474.00;1795633;80;20959;-65
2022/07/24 02:11:28;;;;;;;10.80;5.83;;;;;;;19.47;64.97;95467.87;1795430;80;21030;-65
2022/07/24 02:13:56;;;;;;;10.53;5.30;;;;;;;19.45;64.94;95469.76;1795390;80;21470;-65
2022/07/24 02:16:23;;;;;;;9.75;6.40;;;;;;;19.42;64.45;95465.92;1795502;80;20975;-65
2022/07/24 02:18:49;;;;;;;11.60;6.00;;;;;;;19.45;64.79;95469.76;1795486;80;21014;-65
2022/07/24 02:21:16;;;;;;;10.70;6.28;;;;;;;19.37;65.22;95472.86;1795432;80;21026;-65
2022/07/24 02:23:44;;;;;;;9.93;5.75;;;;;;;19.33;64.95;95467.31;1795287;80;21082;-65
2022/07/24 02:26:10;;;;;;;14.50;6.05;;;;;;;19.30;65.07;95462.10;1795448;80;21526;-65
2022/07/24 02:28:37;;;;;;;14.83;6.42;;;;;;;19.26;64.59;95464.58;1795138;80;21143;-65
2022/07/24 02:31:04;;;;;;;12.50;6.40;;;;;;;19.29;65.16;95468.41;1795310;80;21061;-65
2022/07/24 02:33:31;;;;;;;15.70;6.33;;;;;;;19.23;65.15;95466.95;1795421;80;21472;-65
2022/07/24 02:35:57;;;;;;;7.55;5.85;;;;;;;19.23;65.09;95468.28;1795445;80;21554;-65
2022/07/24 02:38:24;;;;;;;9.40;6.00;;;;;;;19.19;64.57;95470.72;1795494;80;20999;-65
2022/07/24 02:40:50;;;;;;;8.83;6.40;;;;;;;19.13;65.56;95465.72;1790544;80;20979;-65
2022/07/24 02:43:17;;;;;;;8.38;6.40;;;;;;;19.11;64.90;95469.42;1795271;80;21086;-65
2022/07/24 02:45:44;;;;;;;9.68;6.15;;;;;;;19.03;64.76;95480.06;1795321;80;21588;-65
2022/07/24 02:48:11;;;;;;;9.38;6.40;;;;;;;18.90;66.19;95481.67;1795011;80;21018;-64
2022/07/24 02:50:38;;;;;;;11.12;6.60;;;;;;;18.90;66.19;95481.67;1795486;80;21050;-65
2022/07/24 02:53:06;;;;;;;13.38;6.87;;;;;;;18.90;65.71;95481.67;1795328;80;20971;-65
2022/07/24 02:55:33;;;;;;;12.68;6.62;;;;;;;18.92;65.93;95482.42;1795273;80;21022;-65
2022/07/24 02:58:00;;;;;;;9.38;6.65;;;;;;;18.84;65.36;95477.97;1795442;80;21065;-65
2022/07/24 03:00:27;;;;;;;7.87;6.20;;;;;;;18.75;65.83;95479.33;1795304;80;21452;-65
2022/07/24 03:02:53;;;;;;;8.40;6.62;;;;;;;18.71;66.12;95481.73;1795072;80;21023;-65
2022/07/24 03:05:20;;;;;;;6.90;6.22;;;;;;;18.71;65.86;95479.53;1795507;80;21022;-64
2022/07/24 03:07:47;;;;;;;11.08;6.25;;;;;;;18.65;65.58;95482.06;1795172;80;21122;-65
2022/07/24 03:10:15;;;;;;;11.38;5.92;;;;;;;18.57;66.69;95482.91;1795698;80;21054;-65
2022/07/24 03:12:43;;;;;;;10.00;5.83;;;;;;;18.58;66.04;95484.17;1795431;80;21487;-64
2022/07/24 03:15:12;;;;;;;6.08;5.45;;;;;;;18.56;66.91;95496.75;1795357;80;21018;-65
2022/07/24 03:17:39;;;;;;;8.35;5.50;;;;;;;18.56;66.57;95484.72;1795277;80;21021;-65
2022/07/24 03:20:09;;;;;;;11.15;5.53;;;;;;;18.60;66.36;95493.46;1795322;80;21404;-65
2022/07/24 03:22:35;;;;;;;12.10;5.78;;;;;;;18.58;66.15;95489.52;1795490;80;21515;-65
2022/07/24 03:25:02;;;;;;;8.75;5.55;;;;;;;18.54;66.25;95493.28;1795547;80;21491;-64
2022/07/24 03:27:29;;;;;;;8.35;5.12;;;;;;;18.59;65.90;95494.39;1795153;80;21555;-65
2022/07/24 03:29:55;;;;;;;9.65;5.60;;;;;;;18.58;65.98;95498.88;1795475;80;20995;-65
2022/07/24 03:32:22;;;;;;;6.72;5.78;;;;;;;18.68;65.89;95497.08;1795336;80;21496;-65
2022/07/24 03:34:49;;;;;;;8.53;5.78;;;;;;;18.75;65.37;95496.70;1795139;80;21069;-64
2022/07/24 03:37:16;;;;;;;6.90;5.17;;;;;;;18.80;65.18;95500.00;1795267;80;21034;-65
2022/07/24 03:39:42;;;;;;;10.53;5.62;;;;;;;18.90;64.84;95500.83;1795544;80;20975;-65
2022/07/24 03:42:10;;;;;;;9.50;6.65;;;;;;;18.90;64.91;95507.52;1795123;80;21102;-65
2022/07/24 03:44:37;;;;;;;8.63;6.15;;;;;;;18.92;64.57;95503.81;1795105;80;21125;-65
2022/07/24 03:47:04;;;;;;;10.18;5.42;;;;;;;19.00;64.52;95506.97;1795059;80;21090;-65
2022/07/24 03:49:31;;;;;;;9.38;6.47;;;;;;;19.02;64.27;95509.54;1795017;80;21042;-64
2022/07/24 03:51:58;;;;;;;12.98;6.67;;;;;;;18.94;65.87;95512.63;1795083;80;21094;-65
2022/07/24 03:54:25;;;;;;;10.85;6.40;;;;;;;18.85;65.87;95514.47;1795091;80;21082;-65
2022/07/24 03:56:52;;;;;;;10.53;6.30;;;;;;;18.88;65.70;95519.64;1795348;80;21014;-65
2022/07/24 03:59:19;;;;;;;18.65;6.25;;;;;;;18.90;65.61;95532.47;1795317;80;21034;-65
2022/07/24 04:01:46;;;;;;;11.25;6.40;;;;;;;18.96;65.95;95538.81;1792749;80;21489;-65
2022/07/24 04:04:13;;;;;;;10.48;6.58;;;;;;;19.02;65.76;95542.97;1786863;80;21043;-65
2022/07/24 04:06:42;;;;;;;11.05;6.55;;;;;;;19.12;65.54;95548.70;1786749;80;20996;-65
2022/07/24 04:09:10;;;;;;;7.92;6.17;;;;;;;19.20;65.26;95553.16;1787294;80;21050;-65
2022/07/24 04:11:37;;;;;;;9.75;7.47;;;;;;;19.23;64.85;95550.34;1787356;80;21449;-65
2022/07/24 04:14:04;;;;;;;10.32;7.12;;;;;;;19.31;65.59;95548.12;1787051;80;21015;-65
2022/07/24 04:16:31;;;;;;;10.13;6.95;;;;;;;19.28;64.82;95556.31;1787204;80;20956;-65
2022/07/24 04:18:57;;;;;;;10.72;7.70;;;;;;;19.37;64.63;95553.12;1786806;80;21019;-65
2022/07/24 04:21:24;;;;;;;13.55;7.20;;;;;;;19.46;64.02;95548.63;1787306;80;21050;-65
2022/07/24 04:23:50;;;;;;;10.10;7.25;;;;;;;19.60;63.66;95548.34;1787269;80;21042;-65
2022/07/24 04:26:17;;;;;;;13.28;6.90;;;;;;;19.75;63.07;95547.52;1787319;80;20947;-65
2022/07/24 04:28:44;;;;;;;11.90;7.20;;;;;;;19.87;63.19;95547.32;1787236;80;20968;-65
2022/07/24 04:31:11;;;;;;;15.70;8.45;;;;;;;19.95;62.77;95546.41;1787341;80;21035;-65
2022/07/24 04:33:38;;;;;;;13.18;9.08;;;;;;;20.04;62.65;95548.58;1787077;80;20971;-65
2022/07/24 04:36:06;;;;;;;7.75;7.03;;;;;;;20.17;62.38;95553.23;1787473;80;21011;-65
2022/07/24 04:38:34;;;;;;;9.50;7.03;;;;;;;20.31;62.65;95546.14;1787198;80;21495;-65
2022/07/24 04:41:01;;;;;;;10.23;6.90;;;;;;;20.50;62.65;95542.38;1787228;80;20987;-65
2022/07/24 04:43:28;;;;;;;10.85;6.90;;;;;;;20.67;62.04;95544.97;1787263;80;21493;-65
2022/07/24 04:45:55;;;;;;;10.72;6.65;;;;;;;20.89;61.55;95547.69;1787041;80;21077;-65
2022/07/24 04:48:22;;;;;;;10.60;6.70;;;;;;;21.14;60.82;95551.09;1786927;80;21019;-65
2022/07/24 04:50:48;;;;;;;11.25;7.30;;;;;;;21.38;60.33;95554.11;1786882;80;20995;-65
2022/07/24 04:53:15;;;;;;;13.80;5.92;;;;;;;21.63;59.51;95560.19;1787194;80;21007;-65
2022/07/24 04:55:42;;;;;;;8.35;6.80;;;;;;;21.90;56.95;95562.95;1786867;80;21528;-65
2022/07/24 04:58:09;;;;;;;8.98;6.28;;;;;;;22.27;54.78;95553.87;1787329;80;20983;-65
2022/07/24 05:00:35;;;;;;;14.63;6.55;;;;;;;22.62;54.49;95558.25;1786956;80;20976;-65
2022/07/24 05:03:02;;;;;;;12.90;6.75;;;;;;;23.18;49.29;95554.53;1792634;80;21049;-66
2022/07/24 05:05:29;;;;;;;15.43;6.90;;;;;;;23.40;49.65;95548.53;1795270;80;21137;-65
2022/07/24 05:07:55;;;;;;;10.85;6.20;;;;;;;23.67;49.82;95550.62;1795269;80;21026;-66
2022/07/24 05:10:22;;;;;;;13.83;6.33;;;;;;;23.93;47.94;95542.52;1795304;80;21499;-65
2022/07/24 05:12:49;;;;;;;14.23;6.33;;;;;;;24.18;47.04;95542.45;1795365;80;21079;-65
2022/07/24 05:15:15;;;;;;;10.90;6.45;;;;;;;24.45;46.02;95549.98;1795206;80;20991;-65
2022/07/24 05:17:42;;;;;;;11.28;6.08;;;;;;;24.60;47.12;95534.89;1795230;80;21045;-65
2022/07/24 05:20:10;;;;;;;16.65;6.80;;;;;;;24.80;45.92;95546.02;1795504;80;21002;-66
2022/07/24 05:22:37;;;;;;;11.53;6.80;;;;;;;24.98;45.17;95539.20;1795585;80;21037;-66
2022/07/24 05:25:06;;;;;;;11.30;6.70;;;;;;;25.14;44.26;95542.07;1795214;80;21551;-66
2022/07/24 05:27:33;;;;;;;11.45;7.08;;;;;;;25.24;44.99;95542.61;1795422;80;21051;-66
2022/07/24 05:30:00;;;;;;;10.35;6.92;;;;;;;25.36;44.92;95546.21;1795401;80;21065;-65
2022/07/24 05:32:27;;;;;;;13.22;6.80;;;;;;;25.30;44.70;95548.52;1795558;80;21043;-66
2022/07/24 05:34:53;;;;;;;10.63;6.45;;;;;;;25.18;44.70;95547.66;1795121;80;21002;-65
2022/07/24 05:37:20;;;;;;;14.80;6.83;;;;;;;25.10;45.50;95552.72;1795531;80;21022;-66
2022/07/24 05:39:46;;;;;;;13.78;6.45;;;;;;;25.03;45.91;95553.21;1795471;80;20999;-66
2022/07/24 05:42:13;;;;;;;13.00;6.87;;;;;;;24.98;45.88;95551.84;1795226;80;21065;-66
2022/07/24 05:44:40;;;;;;;10.72;6.75;;;;;;;24.94;46.29;95553.91;1795777;80;21038;-66
2022/07/24 05:47:07;;;;;;;10.45;7.03;;;;;;;24.89;46.67;95557.94;1795575;80;20971;-65
2022/07/24 05:49:34;;;;;;;13.78;7.60;;;;;;;24.82;47.36;95554.37;1794800;80;21101;-66
2022/07/24 05:52:02;;;;;;;13.68;6.90;;;;;;;24.77;47.22;95552.51;1795561;80;21011;-66
2022/07/24 05:54:29;;;;;;;15.75;7.03;;;;;;;24.73;46.65;95556.90;1795255;80;20975;-66
2022/07/24 05:56:55;;;;;;;10.35;6.90;;;;;;;24.68;46.64;95551.84;1795581;80;20943;-66
2022/07/24 05:59:22;;;;;;;15.10;7.05;;;;;;;24.66;46.52;95550.23;1795542;80;21006;-66
2022/07/24 06:01:48;;;;;;;16.35;7.20;;;;;;;24.66;46.42;95552.44;1794911;80;21022;-66
2022/07/24 06:04:15;;;;;;;17.05;7.08;;;;;;;24.65;46.34;95552.58;1786794;80;20998;-66
2022/07/24 06:06:42;;;;;;;12.45;6.58;;;;;;;24.60;46.31;95549.72;1787068;80;21023;-66
2022/07/24 06:09:08;;;;;;;8.98;6.65;;;;;;;24.56;46.79;95547.36;1787187;80;21030;-66
2022/07/24 06:11:35;;;;;;;14.83;7.17;;;;;;;24.51;47.22;95546.35;1787327;80;21011;-66
2022/07/24 06:14:03;;;;;;;14.13;6.83;;;;;;;24.51;46.73;95551.75;1786997;80;21019;-66
2022/07/24 06:16:29;;;;;;;12.23;7.25;;;;;;;24.49;46.68;95552.34;1786908;80;21019;-66
2022/07/24 06:18:56;;;;;;;14.93;7.05;;;;;;;24.49;46.87;95554.19;1787103;80;20995;-66
2022/07/24 06:21:23;;;;;;;9.73;6.87;;;;;;;24.49;46.92;95557.73;1787205;80;21003;-66
2022/07/24 06:23:49;;;;;;;13.45;7.10;;;;;;;24.50;46.81;95555.44;1787138;80;21007;-65
2022/07/24 06:26:16;;;;;;;9.90;6.70;;;;;;;24.49;48.27;95550.14;1787442;80;20974;-66
2022/07/24 06:28:43;;;;;;;10.30;6.90;;;;;;;24.43;48.65;95551.44;1787057;80;21067;-66
2022/07/24 06:31:09;;;;;;;10.78;6.92;;;;;;;24.39;49.22;95552.16;1787068;80;21038;-65
2022/07/24 06:33:35;;;;;;;7.97;6.90;;;;;;;24.38;49.52;95542.33;1786959;80;21552;-66
2022/07/24 06:36:02;;;;;;;9.05;6.95;;;;;;;24.44;48.64;95533.41;1787478;80;21002;-65
2022/07/24 06:38:29;;;;;;;11.03;7.42;;;;;;;24.50;48.28;95521.72;1786724;80;21118;-66
2022/07/24 06:40:56;;;;;;;8.43;6.78;;;;;;;24.59;48.23;95521.04;1787328;80;20975;-66
2022/07/24 06:43:22;;;;;;;10.23;6.30;;;;;;;24.64;48.29;95517.97;1787287;80;21011;-66
2022/07/24 06:45:49;;;;;;;9.40;7.20;;;;;;;24.68;48.84;95517.27;1786881;80;21070;-65
2022/07/24 06:48:15;;;;;;;14.20;7.53;;;;;;;24.68;48.73;95521.31;1786726;80;21148;-65
2022/07/24 06:50:42;;;;;;;13.28;7.17;;;;;;;24.73;48.68;95512.37;1786639;80;21146;-66
2022/07/24 06:53:09;;;;;;;13.13;7.80;;;;;;;24.83;47.98;95503.95;1787431;80;20998;-66
2022/07/24 06:55:35;;;;;;;11.57;7.20;;;;;;;24.97;47.93;95505.57;1787189;80;21003;-65
2022/07/24 06:58:02;;;;;;;11.93;7.22;;;;;;;25.09;47.13;95508.67;1787131;80;21007;-65
2022/07/24 07:00:29;;;;;;;11.18;7.25;;;;;;;25.18;47.01;95509.85;1787153;80;21061;-66
2022/07/24 07:02:56;;;;;;;11.75;8.00;;;;;;;25.24;46.63;95510.20;1786954;80;21019;-65
2022/07/24 07:05:23;;;;;;;14.30;7.10;;;;;;;25.27;46.55;95519.91;1786849;80;21067;-65
2022/07/24 07:07:50;;;;;;;13.05;7.78;;;;;;;25.20;47.92;95528.11;1787167;80;21015;-65
2022/07/24 07:10:17;;;;;;;11.85;6.92;;;;;;;25.05;49.18;95539.11;1786900;80;20971;-65
2022/07/24 07:12:44;;;;;;;11.18;6.70;;;;;;;24.94;49.81;95536.86;1786814;80;20967;-65
2022/07/24 07:15:11;;;;;;;10.53;7.10;;;;;;;24.86;50.43;95537.44;1786812;80;21027;-65
2022/07/24 07:17:40;;;;;;;10.75;6.92;;;;;;;24.78;50.84;95546.12;1787030;80;21098;-65
2022/07/24 07:20:09;;;;;;;10.40;7.25;;;;;;;24.68;51.57;95551.84;1786862;80;21113;-66
2022/07/24 07:22:36;;;;;;;21.57;7.72;;;;;;;24.60;51.59;95556.47;1787195;80;21082;-65
2022/07/24 07:25:04;;;;;;;12.03;6.92;;;;;;;24.51;52.26;95558.49;1786818;80;21080;-65
2022/07/24 07:27:31;;;;;;;12.93;7.03;;;;;;;24.47;53.02;95562.41;1787166;80;20967;-65
2022/07/24 07:29:58;;;;;;;8.78;6.95;;;;;;;24.49;53.12;95564.98;1787206;80;21516;-66
2022/07/24 07:32:24;;;;;;;11.00;6.95;;;;;;;24.52;52.94;95566.98;1787280;80;20959;-65
2022/07/24 07:34:51;;;;;;;11.93;6.92;;;;;;;24.53;53.11;95578.13;1786795;80;21050;-65
2022/07/24 07:37:17;;;;;;;10.50;6.72;;;;;;;24.60;53.25;95569.95;1787266;80;20987;-65
2022/07/24 07:39:44;;;;;;;7.67;6.65;;;;;;;24.72;52.93;95571.34;1786806;80;21158;-65
2022/07/24 07:42:11;;;;;;;8.55;6.42;;;;;;;24.80;52.81;95568.46;1787190;80;21009;-65
2022/07/24 07:44:37;;;;;;;7.58;6.75;;;;;;;24.88;53.17;95571.07;1786822;80;21087;-65
2022/07/24 07:47:04;;;;;;;13.03;6.72;;;;;;;25.12;52.96;95571.88;1787187;80;20971;-65
2022/07/24 07:49:30;;;;;;;17.55;6.90;;;;;;;25.50;52.66;95567.22;1786984;80;21006;-65
2022/07/24 07:51:57;;;;;;;10.05;6.72;;;;;;;25.67;51.49;95567.61;1787222;80;21007;-65
2022/07/24 07:54:24;;;;;;;8.43;6.65;;;;;;;25.78;51.33;95568.13;1786887;80;21010;-66
2022/07/24 07:56:51;;;;;;;9.45;7.08;;;;;;;25.93;50.96;95566.55;1787154;80;21595;-65
2022/07/24 07:59:17;;;;;;;9.05;6.40;;;;;;;26.20;49.83;95565.67;1787114;80;21011;-65
2022/07/24 08:01:44;;;;;;;11.12;6.50;;;;;;;26.28;49.72;95569.11;1787069;80;21002;-66
2022/07/24 08:04:11;;;;;;;8.50;6.25;;;;;;;26.29;49.52;95567.64;1786660;80;21038;-66
2022/07/24 08:06:37;;;;;;;9.40;6.53;;;;;;;26.26;49.43;95569.25;1787131;80;21030;-65
2022/07/24 08:09:04;;;;;;;8.15;6.70;;;;;;;26.15;49.24;95578.71;1786628;80;21607;-66
2022/07/24 08:11:31;;;;;;;7.53;6.80;;;;;;;26.10;49.46;95580.93;1787337;80;20991;-66
2022/07/24 08:13:57;;;;;;;8.33;6.65;;;;;;;26.10;49.83;95586.34;1786981;80;20979;-65
2022/07/24 08:16:25;;;;;;;8.20;6.47;;;;;;;26.15;49.86;95590.03;1786975;80;21469;-65
2022/07/24 08:18:51;;;;;;;8.48;6.55;;;;;;;26.21;49.89;95586.34;1786762;80;21023;-66
2022/07/24 08:21:18;;;;;;;10.30;7.05;;;;;;;26.38;49.09;95588.16;1787207;80;20995;-65
2022/07/24 08:23:46;;;;;;;12.70;6.53;;;;;;;26.57;48.68;95583.50;1787023;80;20987;-65
2022/07/24 08:26:13;;;;;;;7.55;6.72;;;;;;;26.68;47.98;95591.58;1787407;80;20979;-66
2022/07/24 08:28:39;;;;;;;9.88;6.90;;;;;;;26.80;48.25;95585.64;1787145;80;21070;-65
2022/07/24 08:31:06;;;;;;;9.53;6.78;;;;;;;27.05;47.46;95587.16;1786770;80;21532;-65
2022/07/24 08:33:33;;;;;;;9.90;6.05;;;;;;;27.25;46.11;95586.86;1786763;80;21023;-65
2022/07/24 08:36:00;;;;;;;10.75;6.70;;;;;;;27.39;45.97;95586.52;1786743;80;21018;-65
2022/07/24 08:38:27;;;;;;;7.50;6.70;;;;;;;27.50;45.85;95588.33;1786858;80;21011;-65
2022/07/24 08:40:54;;;;;;;9.63;6.40;;;;;;;27.65;45.84;95594.27;1786874;80;21060;-65
2022/07/24 08:43:20;;;;;;;7.47;6.65;;;;;;;27.85;45.16;95588.50;1786802;80;21055;-65
2022/07/24 08:45:50;;;;;;;8.15;6.62;;;;;;;27.87;44.81;95592.80;1786859;80;21027;-65
2022/07/24 08:48:21;;;;;;;7.00;6.30;;;;;;;27.88;44.94;95577.38;1786881;80;21079;-65
2022/07/24 08:50:49;;;;;;;9.33;6.25;;;;;;;28.08;44.43;95583.26;1786823;80;21533;-65
2022/07/24 08:53:22;;;;;;;8.73;6.37;;;;;;;28.22;43.94;95584.25;1787095;80;21014;-65
2022/07/24 08:55:50;;;;;;;8.10;6.28;;;;;;;28.36;44.01;95577.58;1787171;80;21575;-65
2022/07/24 08:58:17;;;;;;;8.88;6.65;;;;;;;28.48;43.17;95579.73;1787059;80;21019;-65
2022/07/24 09:00:44;;;;;;;7.72;5.95;;;;;;;28.64;43.36;95578.68;1787037;80;21019;-65
2022/07/24 09:03:12;;;;;;;9.08;6.17;;;;;;;28.77;42.06;95575.70;1787259;80;21007;-66
2022/07/24 09:05:59;;;;;;;6.83;5.70;;;;;;;28.87;41.75;95586.58;1787055;80;21468;-65
2022/07/24 09:08:25;;;;;;;7.85;6.12;;;;;;;29.02;41.94;95580.23;1787194;80;21059;-65
2022/07/24 09:11:05;;;;;;;8.00;5.78;;;;;;;29.23;41.26;95588.27;1786682;80;21023;-65
2022/07/24 09:16:25;;;;;;;6.37;5.62;;;;;;;29.18;41.18;95587.37;1787509;80;20968;-65
2022/07/24 09:19:05;;;;;;;5.72;5.22;;;;;;;29.41;41.31;95590.65;1787019;80;20995;-65
2022/07/24 09:21:35;;;;;;;11.25;5.83;;;;;;;29.65;40.55;95590.68;1786941;80;21015;-65
2022/07/24 09:24:16;;;;;;;6.45;5.87;;;;;;;29.85;39.70;95580.66;1787183;80;21019;-65
2022/07/24 09:26:55;;;;;;;8.23;5.53;;;;;;;30.02;39.36;95581.76;1785212;80;21023;-65
2022/07/24 09:29:25;;;;;;;6.33;5.37;;;;;;;30.12;38.51;95583.44;1787167;80;20987;-65
2022/07/24 09:31:58;;;;;;;9.13;5.60;;;;;;;30.30;38.36;95584.04;1786915;80;21019;-65
2022/07/24 09:34:27;;;;;;;;;;;;;;;30.58;38.43;95584.39;1789718;80;21073;-65
2022/07/24 09:37:04;;;;;;;5.72;5.25;;;;;;;30.90;36.59;95592.62;1756198;82;20099;-65
2022/07/24 09:39:34;;;;;;;6.37;5.22;;;;;;;30.99;36.74;95590.33;1754586;82;21098;-65
2022/07/24 09:42:04;;;;;;;8.15;6.08;;;;;;;31.18;36.64;95592.06;1787253;80;21458;-66
2022/07/24 09:44:32;;;;;;;13.53;6.75;;;;;;;31.33;35.61;95582.84;1787148;80;20967;-66
2022/07/24 09:47:09;;;;;;;8.15;5.55;;;;;;;31.39;35.24;95578.66;1786930;80;21066;-65
2022/07/24 09:49:38;;;;;;;5.55;5.12;;;;;;;31.55;35.30;95579.28;1782132;80;21050;-66
2022/07/24 09:52:15;;;;;;;11.70;5.42;;;;;;;31.81;35.17;95576.61;1787154;80;21038;-65
2022/07/24 09:54:51;;;;;;;6.28;4.80;;;;;;;31.78;34.61;95583.75;1787151;80;21042;-66
2022/07/24 09:57:25;;;;;;;10.08;5.15;;;;;;;31.99;34.59;95582.89;1787169;80;21484;-66
2022/07/24 09:59:57;;;;;;;5.92;5.42;;;;;;;32.08;34.02;95572.86;1787067;80;21512;-66
2022/07/24 10:02:33;;;;;;;5.47;4.97;;;;;;;32.18;32.91;95576.84;1787590;80;21035;-66
2022/07/24 10:05:01;;;;;;;6.47;5.20;;;;;;;32.34;33.87;95587.87;1793253;80;21003;-66
2022/07/24 10:07:29;;;;;;;6.90;4.90;;;;;;;32.44;33.12;95589.97;1795480;80;21014;-66
2022/07/24 10:09:59;;;;;;;11.70;4.90;;;;;;;32.45;33.21;95593.55;1795486;80;21006;-66
2022/07/24 10:12:30;;;;;;;8.15;5.58;;;;;;;32.29;33.21;95588.87;1795470;80;21003;-66
2022/07/24 10:14:59;;;;;;;5.95;5.45;;;;;;;31.98;33.39;95592.59;1795288;80;20967;-66
2022/07/24 10:18:00;;;;;;;5.45;4.92;;;;;;;31.86;33.65;95595.56;1795555;80;21007;-66
2022/07/24 10:20:40;;;;;;;5.85;5.15;;;;;;;32.06;33.62;95598.13;1795606;80;21042;-66
2022/07/24 10:23:08;;;;;;;6.10;5.60;;;;;;;32.32;32.99;95590.75;1794274;80;20979;-66
2022/07/24 10:25:46;;;;;;;6.42;5.83;;;;;;;32.41;32.32;95587.58;1795506;80;21471;-66
2022/07/24 10:28:17;;;;;;;6.80;5.50;;;;;;;32.44;32.45;95593.22;1785340;80;21015;-66
2022/07/24 10:30:44;;;;;;;9.50;6.37;;;;;;;32.46;32.52;95591.19;1795304;80;21054;-66
2022/07/24 10:33:11;;;;;;;11.48;5.60;;;;;;;32.60;32.51;95593.31;1795153;80;21630;-66
2022/07/24 10:35:40;;;;;;;6.12;5.53;;;;;;;32.42;32.79;95597.98;1790229;80;21445;-66
2022/07/24 10:38:21;;;;;;;6.58;5.60;;;;;;;32.53;33.29;95594.98;1795293;80;21046;-66
2022/07/24 10:40:51;;;;;;;7.85;5.75;;;;;;;32.79;32.70;95592.20;1795458;80;21006;-66
2022/07/24 10:43:20;;;;;;;6.12;5.53;;;;;;;32.71;32.61;95599.86;1795336;80;21105;-66
2022/07/24 10:45:52;;;;;;;12.90;5.55;;;;;;;32.68;33.26;95596.06;1795444;80;21498;-66
2022/07/24 10:48:26;;;;;;;;;;;;;;;32.98;33.00;95599.25;1786607;80;21014;-66
2022/07/24 10:51:01;;;;;;;6.55;5.92;;;;;;;32.69;33.46;95611.45;1763938;81;20094;-66
2022/07/24 10:53:47;;;;;;;7.35;5.78;;;;;;;32.21;34.49;95623.81;1789750;80;21011;-66
2022/07/24 10:56:40;;;;;;;7.90;5.85;;;;;;;31.88;35.26;95630.89;1795170;80;21010;-66
2022/07/24 10:59:12;;;;;;;5.80;5.30;;;;;;;31.58;35.93;95625.36;1795299;80;21010;-66
2022/07/24 11:01:45;;;;;;;;;;;;;;;31.44;36.42;95626.23;1798205;80;20995;-66
2022/07/24 11:04:26;;;;;;;6.30;5.70;;;;;;;31.03;37.04;95624.44;1762733;81;20444;-66
2022/07/24 11:07:14;;;;;;;6.70;6.10;;;;;;;30.85;37.56;95619.48;1761507;81;21018;-66
2022/07/24 11:10:07;;;;;;;6.45;5.90;;;;;;;30.81;37.90;95619.38;1778892;80;20974;-66
2022/07/24 11:12:47;;;;;;;6.60;6.03;;;;;;;31.17;37.30;95623.07;1792654;80;21045;-66
2022/07/24 11:18:10;;;;;;;6.50;6.00;;;;;;;31.96;36.88;95616.48;1792600;80;21009;-66
2022/07/24 11:20:38;;;;;;;7.53;6.22;;;;;;;32.12;35.89;95615.21;1715534;80;21055;-66
2022/07/24 11:23:20;;;;;;;6.05;5.55;;;;;;;32.39;35.30;95610.60;1792472;80;21005;-66
2022/07/24 11:25:46;;;;;;;6.67;5.47;;;;;;;32.64;35.17;95608.88;1792644;80;21471;-66
2022/07/24 11:28:13;;;;;;;6.12;5.58;;;;;;;32.93;33.62;95607.09;1792827;80;20994;-66
2022/07/24 11:30:46;;;;;;;5.22;4.72;;;;;;;32.92;33.55;95599.41;1792745;80;21131;-66
2022/07/24 11:33:20;;;;;;;5.87;5.40;;;;;;;33.28;32.70;95608.73;1792447;80;21012;-66
2022/07/24 11:35:47;;;;;;;5.25;4.75;;;;;;;33.50;31.89;95601.77;1792606;80;21475;-66
2022/07/24 11:38:15;;;;;;;6.08;5.08;;;;;;;33.42;31.48;95603.14;1792262;80;21073;-66
2022/07/24 11:40:41;;;;;;;5.25;4.75;;;;;;;33.43;30.50;95607.56;1792731;80;21501;-66